sensor_id;sensor_type;location;lat;lon;timestamp;temperature;humidity
6758;DHT22;3416;53.074;8.822;2023-09-12T00:01:08;22.30;99.90
6758;DHT22;3416;53.074;8.822;2023-09-12T00:03:35;22.30;99.90
6758;DHT22;3416;53.074;8.822;2023-09-12T00:06:03;22.30;99.90
6758;DHT22;3416;53.074;8.822;2023-09-12T00:08:30;22.20;99.90
6758;DHT22;3416;53.074;8.822;2023-09-12T00:11:01;22.20;99.90
6758;DHT22;3416;53.074;8.822;2023-09-12T00:13:28;22.10;99.90
6758;DHT22;3416;53.074;8.822;2023-09-12T00:15:55;22.00;99.90
6758;DHT22;3416;53.074;8.822;2023-09-12T00:18:24;21.90;99.90
6758;DHT22;3416;53.074;8.822;2023-09-12T00:20:51;21.80;99.90
6758;DHT22;3416;53.074;8.822;2023-09-12T00:23:20;21.60;99.90
6758;DHT22;3416;53.074;8.822;2023-09-12T00:25:47;21.60;99.90
6758;DHT22;3416;53.074;8.822;2023-09-12T00:28:14;21.50;99.90
6758;DHT22;3416;53.074;8.822;2023-09-12T00:30:40;21.40;99.90
6758;DHT22;3416;53.074;8.822;2023-09-12T00:33:07;21.30;99.90
6758;DHT22;3416;53.074;8.822;2023-09-12T00:35:36;21.30;99.90
6758;DHT22;3416;53.074;8.822;2023-09-12T00:38:03;21.30;99.90
6758;DHT22;3416;53.074;8.822;2023-09-12T00:40:29;21.30;99.90
6758;DHT22;3416;53.074;8.822;2023-09-12T00:42:57;21.30;99.90
6758;DHT22;3416;53.074;8.822;2023-09-12T00:45:25;21.30;99.90
6758;DHT22;3416;53.074;8.822;2023-09-12T00:47:58;21.20;99.90
6758;DHT22;3416;53.074;8.822;2023-09-12T00:50:26;21.20;99.90
6758;DHT22;3416;53.074;8.822;2023-09-12T00:52:55;21.30;99.90
6758;DHT22;3416;53.074;8.822;2023-09-12T00:55:33;21.20;99.90
6758;DHT22;3416;53.074;8.822;2023-09-12T00:58:01;21.10;99.90
6758;DHT22;3416;53.074;8.822;2023-09-12T01:00:29;21.10;99.90
6758;DHT22;3416;53.074;8.822;2023-09-12T01:02:56;21.10;99.90
6758;DHT22;3416;53.074;8.822;2023-09-12T01:05:23;21.10;99.90
6758;DHT22;3416;53.074;8.822;2023-09-12T01:07:50;21.10;99.90
6758;DHT22;3416;53.074;8.822;2023-09-12T01:10:19;21.20;99.90
6758;DHT22;3416;53.074;8.822;2023-09-12T01:12:46;21.20;99.90
6758;DHT22;3416;53.074;8.822;2023-09-12T01:15:13;21.20;99.90
6758;DHT22;3416;53.074;8.822;2023-09-12T01:17:41;21.20;99.90
6758;DHT22;3416;53.074;8.822;2023-09-12T01:20:11;21.20;99.90
6758;DHT22;3416;53.074;8.822;2023-09-12T01:22:56;21.20;99.90
6758;DHT22;3416;53.074;8.822;2023-09-12T01:25:50;21.10;99.90
6758;DHT22;3416;53.074;8.822;2023-09-12T01:28:24;21.10;99.90
6758;DHT22;3416;53.074;8.822;2023-09-12T01:30:58;21.10;99.90
6758;DHT22;3416;53.074;8.822;2023-09-12T01:33:26;21.20;99.90
6758;DHT22;3416;53.074;8.822;2023-09-12T01:35:53;21.20;99.90
6758;DHT22;3416;53.074;8.822;2023-09-12T01:38:23;21.20;99.90
6758;DHT22;3416;53.074;8.822;2023-09-12T01:40:51;21.20;99.90
6758;DHT22;3416;53.074;8.822;2023-09-12T01:43:21;21.20;99.90
6758;DHT22;3416;53.074;8.822;2023-09-12T01:45:54;21.20;99.90
6758;DHT22;3416;53.074;8.822;2023-09-12T01:48:26;21.20;99.90
6758;DHT22;3416;53.074;8.822;2023-09-12T01:50:56;21.20;99.90
6758;DHT22;3416;53.074;8.822;2023-09-12T01:53:23;21.30;99.90
6758;DHT22;3416;53.074;8.822;2023-09-12T01:55:50;21.20;99.90
6758;DHT22;3416;53.074;8.822;2023-09-12T01:58:17;21.20;99.90
6758;DHT22;3416;53.074;8.822;2023-09-12T02:00:45;21.20;99.90
6758;DHT22;3416;53.074;8.822;2023-09-12T02:03:13;21.20;99.90
6758;DHT22;3416;53.074;8.822;2023-09-12T02:05:40;21.20;99.90
6758;DHT22;3416;53.074;8.822;2023-09-12T02:08:07;21.20;99.90
6758;DHT22;3416;53.074;8.822;2023-09-12T02:10:34;21.20;99.90
6758;DHT22;3416;53.074;8.822;2023-09-12T02:13:01;21.20;99.90
6758;DHT22;3416;53.074;8.822;2023-09-12T02:15:28;21.30;99.90
6758;DHT22;3416;53.074;8.822;2023-09-12T02:17:54;21.20;99.90
6758;DHT22;3416;53.074;8.822;2023-09-12T02:20:23;21.20;99.90
6758;DHT22;3416;53.074;8.822;2023-09-12T02:22:50;21.20;99.90
6758;DHT22;3416;53.074;8.822;2023-09-12T02:25:16;21.30;99.90
6758;DHT22;3416;53.074;8.822;2023-09-12T02:27:43;21.30;99.90
6758;DHT22;3416;53.074;8.822;2023-09-12T02:30:10;21.30;99.90
6758;DHT22;3416;53.074;8.822;2023-09-12T02:32:37;21.30;99.90
6758;DHT22;3416;53.074;8.822;2023-09-12T02:35:05;21.20;99.90
6758;DHT22;3416;53.074;8.822;2023-09-12T02:37:33;21.30;99.90
6758;DHT22;3416;53.074;8.822;2023-09-12T02:40:00;21.20;99.90
6758;DHT22;3416;53.074;8.822;2023-09-12T02:42:27;21.20;99.90
6758;DHT22;3416;53.074;8.822;2023-09-12T02:44:54;21.20;99.90
6758;DHT22;3416;53.074;8.822;2023-09-12T02:47:21;21.10;99.90
6758;DHT22;3416;53.074;8.822;2023-09-12T02:49:48;21.20;99.90
6758;DHT22;3416;53.074;8.822;2023-09-12T02:52:15;21.10;99.90
6758;DHT22;3416;53.074;8.822;2023-09-12T02:54:43;21.10;99.90
6758;DHT22;3416;53.074;8.822;2023-09-12T02:57:11;21.10;99.90
6758;DHT22;3416;53.074;8.822;2023-09-12T02:59:37;21.10;99.90
6758;DHT22;3416;53.074;8.822;2023-09-12T03:02:04;21.10;99.90
6758;DHT22;3416;53.074;8.822;2023-09-12T03:04:34;21.10;99.90
6758;DHT22;3416;53.074;8.822;2023-09-12T03:07:01;21.10;99.90
6758;DHT22;3416;53.074;8.822;2023-09-12T03:09:28;21.20;99.90
6758;DHT22;3416;53.074;8.822;2023-09-12T03:11:56;21.20;99.90
6758;DHT22;3416;53.074;8.822;2023-09-12T03:14:23;21.20;99.90
6758;DHT22;3416;53.074;8.822;2023-09-12T03:16:50;21.20;99.90
6758;DHT22;3416;53.074;8.822;2023-09-12T03:19:17;21.20;99.90
6758;DHT22;3416;53.074;8.822;2023-09-12T03:21:44;21.20;99.90
6758;DHT22;3416;53.074;8.822;2023-09-12T03:24:10;21.20;99.90
6758;DHT22;3416;53.074;8.822;2023-09-12T03:26:37;21.20;99.90
6758;DHT22;3416;53.074;8.822;2023-09-12T03:29:05;21.20;99.90
6758;DHT22;3416;53.074;8.822;2023-09-12T03:31:32;21.20;99.90
6758;DHT22;3416;53.074;8.822;2023-09-12T03:34:00;21.20;99.90
6758;DHT22;3416;53.074;8.822;2023-09-12T03:36:27;21.20;99.90
6758;DHT22;3416;53.074;8.822;2023-09-12T03:38:54;21.20;99.90
6758;DHT22;3416;53.074;8.822;2023-09-12T03:41:21;21.20;99.90
6758;DHT22;3416;53.074;8.822;2023-09-12T03:43:50;21.00;99.90
6758;DHT22;3416;53.074;8.822;2023-09-12T03:46:18;21.10;99.90
6758;DHT22;3416;53.074;8.822;2023-09-12T03:48:45;21.10;99.90
6758;DHT22;3416;53.074;8.822;2023-09-12T03:51:12;21.10;99.90
6758;DHT22;3416;53.074;8.822;2023-09-12T03:53:40;21.20;99.90
6758;DHT22;3416;53.074;8.822;2023-09-12T03:56:07;21.10;99.90
6758;DHT22;3416;53.074;8.822;2023-09-12T03:58:35;21.20;99.90
6758;DHT22;3416;53.074;8.822;2023-09-12T04:01:02;21.20;99.90
6758;DHT22;3416;53.074;8.822;2023-09-12T04:03:30;21.20;99.90
6758;DHT22;3416;53.074;8.822;2023-09-12T04:05:57;21.20;99.90
6758;DHT22;3416;53.074;8.822;2023-09-12T04:08:24;21.20;99.90
6758;DHT22;3416;53.074;8.822;2023-09-12T04:10:51;21.20;99.90
6758;DHT22;3416;53.074;8.822;2023-09-12T04:13:18;21.20;99.90
6758;DHT22;3416;53.074;8.822;2023-09-12T04:15:44;21.10;99.90
6758;DHT22;3416;53.074;8.822;2023-09-12T04:18:13;21.10;99.90
6758;DHT22;3416;53.074;8.822;2023-09-12T04:20:42;21.10;99.90
6758;DHT22;3416;53.074;8.822;2023-09-12T04:23:09;21.10;99.90
6758;DHT22;3416;53.074;8.822;2023-09-12T04:25:35;21.10;99.90
6758;DHT22;3416;53.074;8.822;2023-09-12T04:28:03;21.20;99.90
6758;DHT22;3416;53.074;8.822;2023-09-12T04:30:30;21.10;99.90
6758;DHT22;3416;53.074;8.822;2023-09-12T04:32:57;21.10;99.90
6758;DHT22;3416;53.074;8.822;2023-09-12T04:35:24;21.00;99.90
6758;DHT22;3416;53.074;8.822;2023-09-12T04:37:52;21.00;99.90
6758;DHT22;3416;53.074;8.822;2023-09-12T04:40:19;21.00;99.90
6758;DHT22;3416;53.074;8.822;2023-09-12T04:42:46;21.00;99.90
6758;DHT22;3416;53.074;8.822;2023-09-12T04:45:13;21.00;99.90
6758;DHT22;3416;53.074;8.822;2023-09-12T04:47:39;21.00;99.90
6758;DHT22;3416;53.074;8.822;2023-09-12T04:50:08;21.00;99.90
6758;DHT22;3416;53.074;8.822;2023-09-12T04:52:37;21.00;99.90
6758;DHT22;3416;53.074;8.822;2023-09-12T04:55:06;20.90;99.90
6758;DHT22;3416;53.074;8.822;2023-09-12T04:57:33;20.90;99.90
6758;DHT22;3416;53.074;8.822;2023-09-12T04:59:59;20.90;99.90
6758;DHT22;3416;53.074;8.822;2023-09-12T05:02:26;20.90;99.90
6758;DHT22;3416;53.074;8.822;2023-09-12T05:04:53;20.90;99.90
6758;DHT22;3416;53.074;8.822;2023-09-12T05:07:20;20.90;99.90
6758;DHT22;3416;53.074;8.822;2023-09-12T05:09:48;20.90;99.90
6758;DHT22;3416;53.074;8.822;2023-09-12T05:12:16;20.90;99.90
6758;DHT22;3416;53.074;8.822;2023-09-12T05:14:43;20.90;99.90
6758;DHT22;3416;53.074;8.822;2023-09-12T05:17:10;21.00;99.90
6758;DHT22;3416;53.074;8.822;2023-09-12T05:19:37;20.90;99.90
6758;DHT22;3416;53.074;8.822;2023-09-12T05:22:03;20.90;99.90
6758;DHT22;3416;53.074;8.822;2023-09-12T05:24:30;20.90;99.90
6758;DHT22;3416;53.074;8.822;2023-09-12T05:26:57;20.80;99.90
6758;DHT22;3416;53.074;8.822;2023-09-12T05:29:25;20.80;99.90
6758;DHT22;3416;53.074;8.822;2023-09-12T05:31:52;20.80;99.90
6758;DHT22;3416;53.074;8.822;2023-09-12T05:34:19;20.80;99.90
6758;DHT22;3416;53.074;8.822;2023-09-12T05:36:46;20.80;99.90
6758;DHT22;3416;53.074;8.822;2023-09-12T05:39:13;20.80;99.90
6758;DHT22;3416;53.074;8.822;2023-09-12T05:41:40;20.80;99.90
6758;DHT22;3416;53.074;8.822;2023-09-12T05:44:07;20.80;99.90
6758;DHT22;3416;53.074;8.822;2023-09-12T05:46:35;20.80;99.90
6758;DHT22;3416;53.074;8.822;2023-09-12T05:49:02;20.80;99.90
6758;DHT22;3416;53.074;8.822;2023-09-12T05:51:29;20.80;99.90
6758;DHT22;3416;53.074;8.822;2023-09-12T05:53:56;20.80;99.90
6758;DHT22;3416;53.074;8.822;2023-09-12T05:56:23;20.80;99.90
6758;DHT22;3416;53.074;8.822;2023-09-12T05:58:50;20.80;99.90
6758;DHT22;3416;53.074;8.822;2023-09-12T06:01:17;20.90;99.90
6758;DHT22;3416;53.074;8.822;2023-09-12T06:03:46;20.90;99.90
6758;DHT22;3416;53.074;8.822;2023-09-12T06:06:14;20.90;99.90
6758;DHT22;3416;53.074;8.822;2023-09-12T06:08:41;20.90;99.90
6758;DHT22;3416;53.074;8.822;2023-09-12T06:11:08;20.90;99.90
6758;DHT22;3416;53.074;8.822;2023-09-12T06:13:35;20.90;99.90
6758;DHT22;3416;53.074;8.822;2023-09-12T06:16:03;20.90;99.90
6758;DHT22;3416;53.074;8.822;2023-09-12T06:18:31;20.90;99.90
6758;DHT22;3416;53.074;8.822;2023-09-12T06:20:59;20.90;99.90
6758;DHT22;3416;53.074;8.822;2023-09-12T06:23:28;21.00;99.90
6758;DHT22;3416;53.074;8.822;2023-09-12T06:25:55;21.00;99.90
6758;DHT22;3416;53.074;8.822;2023-09-12T06:28:26;21.10;99.90
6758;DHT22;3416;53.074;8.822;2023-09-12T06:30:53;21.10;99.90
6758;DHT22;3416;53.074;8.822;2023-09-12T06:33:20;21.20;99.90
6758;DHT22;3416;53.074;8.822;2023-09-12T06:35:48;21.30;99.90
6758;DHT22;3416;53.074;8.822;2023-09-12T06:38:16;21.20;99.90
6758;DHT22;3416;53.074;8.822;2023-09-12T06:40:43;21.30;99.90
6758;DHT22;3416;53.074;8.822;2023-09-12T06:43:10;21.30;99.90
6758;DHT22;3416;53.074;8.822;2023-09-12T06:45:37;21.30;99.90
6758;DHT22;3416;53.074;8.822;2023-09-12T06:48:04;21.40;99.90
6758;DHT22;3416;53.074;8.822;2023-09-12T06:50:31;21.40;99.90
6758;DHT22;3416;53.074;8.822;2023-09-12T06:52:58;21.40;99.90
6758;DHT22;3416;53.074;8.822;2023-09-12T06:55:28;21.40;99.90
6758;DHT22;3416;53.074;8.822;2023-09-12T06:57:55;21.50;99.90
6758;DHT22;3416;53.074;8.822;2023-09-12T07:00:22;21.60;99.90
6758;DHT22;3416;53.074;8.822;2023-09-12T07:02:49;21.70;99.90
6758;DHT22;3416;53.074;8.822;2023-09-12T07:05:16;21.70;99.90
6758;DHT22;3416;53.074;8.822;2023-09-12T07:07:43;21.80;99.90
6758;DHT22;3416;53.074;8.822;2023-09-12T07:10:10;21.90;99.90
6758;DHT22;3416;53.074;8.822;2023-09-12T07:12:38;22.20;99.90
6758;DHT22;3416;53.074;8.822;2023-09-12T07:15:08;22.40;99.90
6758;DHT22;3416;53.074;8.822;2023-09-12T07:17:35;22.50;99.90
6758;DHT22;3416;53.074;8.822;2023-09-12T07:20:02;22.70;99.90
6758;DHT22;3416;53.074;8.822;2023-09-12T07:22:30;22.90;99.90
6758;DHT22;3416;53.074;8.822;2023-09-12T07:24:59;22.80;99.90
6758;DHT22;3416;53.074;8.822;2023-09-12T07:27:28;22.70;99.90
6758;DHT22;3416;53.074;8.822;2023-09-12T07:29:57;22.60;99.90
6758;DHT22;3416;53.074;8.822;2023-09-12T07:32:23;22.60;99.90
6758;DHT22;3416;53.074;8.822;2023-09-12T07:34:50;22.40;99.90
6758;DHT22;3416;53.074;8.822;2023-09-12T07:37:17;22.50;99.90
6758;DHT22;3416;53.074;8.822;2023-09-12T07:39:44;22.40;99.90
6758;DHT22;3416;53.074;8.822;2023-09-12T07:42:11;22.30;99.90
6758;DHT22;3416;53.074;8.822;2023-09-12T07:44:39;22.30;99.90
6758;DHT22;3416;53.074;8.822;2023-09-12T07:47:07;22.20;99.90
6758;DHT22;3416;53.074;8.822;2023-09-12T07:49:34;22.20;99.90
6758;DHT22;3416;53.074;8.822;2023-09-12T07:52:01;22.10;99.90
6758;DHT22;3416;53.074;8.822;2023-09-12T07:54:30;22.00;99.90
6758;DHT22;3416;53.074;8.822;2023-09-12T07:56:57;22.00;99.90
6758;DHT22;3416;53.074;8.822;2023-09-12T07:59:25;22.00;99.90
6758;DHT22;3416;53.074;8.822;2023-09-12T08:01:54;21.90;99.90
6758;DHT22;3416;53.074;8.822;2023-09-12T08:04:24;22.00;99.90
6758;DHT22;3416;53.074;8.822;2023-09-12T08:06:51;22.20;99.90
6758;DHT22;3416;53.074;8.822;2023-09-12T08:09:18;22.30;99.90
6758;DHT22;3416;53.074;8.822;2023-09-12T08:11:45;22.50;99.90
6758;DHT22;3416;53.074;8.822;2023-09-12T08:14:13;22.60;99.90
6758;DHT22;3416;53.074;8.822;2023-09-12T08:16:40;22.50;99.90
6758;DHT22;3416;53.074;8.822;2023-09-12T08:19:07;22.50;99.90
6758;DHT22;3416;53.074;8.822;2023-09-12T08:21:35;22.70;99.90
6758;DHT22;3416;53.074;8.822;2023-09-12T08:24:03;22.70;99.90
6758;DHT22;3416;53.074;8.822;2023-09-12T08:26:29;22.70;99.90
6758;DHT22;3416;53.074;8.822;2023-09-12T08:28:57;22.70;99.90
6758;DHT22;3416;53.074;8.822;2023-09-12T08:31:24;22.80;99.90
6758;DHT22;3416;53.074;8.822;2023-09-12T08:33:53;22.90;99.90
6758;DHT22;3416;53.074;8.822;2023-09-12T08:36:19;23.00;99.90
6758;DHT22;3416;53.074;8.822;2023-09-12T08:38:48;23.10;99.90
6758;DHT22;3416;53.074;8.822;2023-09-12T08:41:15;23.20;99.90
6758;DHT22;3416;53.074;8.822;2023-09-12T08:43:42;23.30;99.90
6758;DHT22;3416;53.074;8.822;2023-09-12T08:46:10;23.40;99.90
6758;DHT22;3416;53.074;8.822;2023-09-12T08:48:38;23.50;99.90
6758;DHT22;3416;53.074;8.822;2023-09-12T08:51:07;23.50;99.90
6758;DHT22;3416;53.074;8.822;2023-09-12T08:53:35;23.40;99.90
6758;DHT22;3416;53.074;8.822;2023-09-12T08:56:04;23.40;99.90
6758;DHT22;3416;53.074;8.822;2023-09-12T08:58:32;23.40;99.90
6758;DHT22;3416;53.074;8.822;2023-09-12T09:01:01;23.30;99.90
6758;DHT22;3416;53.074;8.822;2023-09-12T09:03:30;23.40;99.90
6758;DHT22;3416;53.074;8.822;2023-09-12T09:05:57;23.40;99.90
6758;DHT22;3416;53.074;8.822;2023-09-12T09:08:27;23.40;99.90
6758;DHT22;3416;53.074;8.822;2023-09-12T09:10:55;23.40;99.90
6758;DHT22;3416;53.074;8.822;2023-09-12T09:13:25;23.40;99.90
6758;DHT22;3416;53.074;8.822;2023-09-12T09:16:10;23.30;99.90
6758;DHT22;3416;53.074;8.822;2023-09-12T09:18:51;23.20;99.90
6758;DHT22;3416;53.074;8.822;2023-09-12T09:21:18;23.10;99.90
6758;DHT22;3416;53.074;8.822;2023-09-12T09:23:46;22.90;99.90
6758;DHT22;3416;53.074;8.822;2023-09-12T09:26:14;22.80;99.90
6758;DHT22;3416;53.074;8.822;2023-09-12T09:28:42;22.60;99.90
6758;DHT22;3416;53.074;8.822;2023-09-12T09:31:13;22.60;99.90
6758;DHT22;3416;53.074;8.822;2023-09-12T09:33:40;22.60;99.90
6758;DHT22;3416;53.074;8.822;2023-09-12T09:36:11;22.50;99.90
6758;DHT22;3416;53.074;8.822;2023-09-12T09:38:38;22.30;99.90
6758;DHT22;3416;53.074;8.822;2023-09-12T09:41:07;22.30;99.90
6758;DHT22;3416;53.074;8.822;2023-09-12T09:43:33;22.20;99.90
6758;DHT22;3416;53.074;8.822;2023-09-12T09:46:04;22.10;99.90
6758;DHT22;3416;53.074;8.822;2023-09-12T09:48:31;22.00;99.90
6758;DHT22;3416;53.074;8.822;2023-09-12T09:51:00;21.90;99.90
6758;DHT22;3416;53.074;8.822;2023-09-12T09:53:28;21.90;99.90
6758;DHT22;3416;53.074;8.822;2023-09-12T09:56:09;21.90;99.90
6758;DHT22;3416;53.074;8.822;2023-09-12T09:58:36;21.80;99.90
6758;DHT22;3416;53.074;8.822;2023-09-12T10:01:07;21.70;99.90
6758;DHT22;3416;53.074;8.822;2023-09-12T10:03:36;21.60;99.90
6758;DHT22;3416;53.074;8.822;2023-09-12T10:06:04;21.70;99.90
6758;DHT22;3416;53.074;8.822;2023-09-12T10:08:32;21.70;99.90
6758;DHT22;3416;53.074;8.822;2023-09-12T10:11:02;21.70;99.90
6758;DHT22;3416;53.074;8.822;2023-09-12T10:13:30;21.70;99.90
6758;DHT22;3416;53.074;8.822;2023-09-12T10:15:59;21.80;99.90
6758;DHT22;3416;53.074;8.822;2023-09-12T10:18:33;21.80;99.90
6758;DHT22;3416;53.074;8.822;2023-09-12T10:21:07;21.90;99.90
6758;DHT22;3416;53.074;8.822;2023-09-12T10:23:39;22.00;99.90
6758;DHT22;3416;53.074;8.822;2023-09-12T10:26:11;22.10;99.90
6758;DHT22;3416;53.074;8.822;2023-09-12T10:28:40;22.10;99.90
6758;DHT22;3416;53.074;8.822;2023-09-12T10:31:08;22.10;99.90
6758;DHT22;3416;53.074;8.822;2023-09-12T10:33:38;22.20;99.90
6758;DHT22;3416;53.074;8.822;2023-09-12T10:36:06;22.10;99.90
6758;DHT22;3416;53.074;8.822;2023-09-12T10:38:39;22.00;99.90
6758;DHT22;3416;53.074;8.822;2023-09-12T10:41:08;22.10;99.90
6758;DHT22;3416;53.074;8.822;2023-09-12T10:43:36;22.00;99.90
6758;DHT22;3416;53.074;8.822;2023-09-12T10:46:05;21.90;99.90
6758;DHT22;3416;53.074;8.822;2023-09-12T10:48:33;21.90;99.90
6758;DHT22;3416;53.074;8.822;2023-09-12T10:51:03;22.00;99.90
6758;DHT22;3416;53.074;8.822;2023-09-12T10:53:31;22.20;99.90
6758;DHT22;3416;53.074;8.822;2023-09-12T10:55:59;22.20;99.90
6758;DHT22;3416;53.074;8.822;2023-09-12T10:58:27;22.20;99.90
6758;DHT22;3416;53.074;8.822;2023-09-12T11:01:22;22.20;99.90
6758;DHT22;3416;53.074;8.822;2023-09-12T11:03:49;22.30;99.90
6758;DHT22;3416;53.074;8.822;2023-09-12T11:06:28;22.30;99.90
6758;DHT22;3416;53.074;8.822;2023-09-12T11:09:16;22.30;99.90
6758;DHT22;3416;53.074;8.822;2023-09-12T11:11:46;22.30;99.90
6758;DHT22;3416;53.074;8.822;2023-09-12T11:14:14;22.30;99.90
6758;DHT22;3416;53.074;8.822;2023-09-12T11:16:42;22.40;99.90
6758;DHT22;3416;53.074;8.822;2023-09-12T11:19:17;22.40;99.90
6758;DHT22;3416;53.074;8.822;2023-09-12T11:21:49;22.40;99.90
6758;DHT22;3416;53.074;8.822;2023-09-12T11:24:17;22.50;99.90
6758;DHT22;3416;53.074;8.822;2023-09-12T11:26:55;22.50;99.90
6758;DHT22;3416;53.074;8.822;2023-09-12T11:29:26;22.70;99.90
6758;DHT22;3416;53.074;8.822;2023-09-12T11:31:55;22.80;99.90
6758;DHT22;3416;53.074;8.822;2023-09-12T11:34:25;22.90;99.90
6758;DHT22;3416;53.074;8.822;2023-09-12T11:36:56;22.90;99.90
6758;DHT22;3416;53.074;8.822;2023-09-12T11:39:28;23.30;99.90
6758;DHT22;3416;53.074;8.822;2023-09-12T11:41:56;23.60;99.90
6758;DHT22;3416;53.074;8.822;2023-09-12T11:44:23;24.00;99.90
6758;DHT22;3416;53.074;8.822;2023-09-12T11:46:52;24.30;99.90
6758;DHT22;3416;53.074;8.822;2023-09-12T11:49:19;24.60;99.90
6758;DHT22;3416;53.074;8.822;2023-09-12T11:51:50;24.90;99.90
6758;DHT22;3416;53.074;8.822;2023-09-12T11:54:20;24.80;99.90
6758;DHT22;3416;53.074;8.822;2023-09-12T11:56:51;24.60;99.90
6758;DHT22;3416;53.074;8.822;2023-09-12T11:59:22;24.60;99.90
6758;DHT22;3416;53.074;8.822;2023-09-12T12:01:49;24.60;99.90
6758;DHT22;3416;53.074;8.822;2023-09-12T12:04:16;24.60;99.90
6758;DHT22;3416;53.074;8.822;2023-09-12T12:06:43;24.80;99.90
6758;DHT22;3416;53.074;8.822;2023-09-12T12:09:10;24.90;99.90
6758;DHT22;3416;53.074;8.822;2023-09-12T12:11:39;25.20;99.90
6758;DHT22;3416;53.074;8.822;2023-09-12T12:14:14;25.10;99.90
6758;DHT22;3416;53.074;8.822;2023-09-12T12:16:43;25.30;99.90
6758;DHT22;3416;53.074;8.822;2023-09-12T12:19:10;25.40;99.90
6758;DHT22;3416;53.074;8.822;2023-09-12T12:21:37;25.50;99.90
6758;DHT22;3416;53.074;8.822;2023-09-12T12:24:05;25.40;99.90
6758;DHT22;3416;53.074;8.822;2023-09-12T12:26:34;25.10;99.90
6758;DHT22;3416;53.074;8.822;2023-09-12T12:29:04;24.90;99.90
6758;DHT22;3416;53.074;8.822;2023-09-12T12:31:31;24.60;99.90
6758;DHT22;3416;53.074;8.822;2023-09-12T12:33:58;24.80;99.90
6758;DHT22;3416;53.074;8.822;2023-09-12T12:36:25;24.80;99.90
6758;DHT22;3416;53.074;8.822;2023-09-12T12:38:53;24.80;99.90
6758;DHT22;3416;53.074;8.822;2023-09-12T12:41:24;24.80;99.90
6758;DHT22;3416;53.074;8.822;2023-09-12T12:43:57;24.80;99.90
6758;DHT22;3416;53.074;8.822;2023-09-12T12:46:27;24.80;99.90
6758;DHT22;3416;53.074;8.822;2023-09-12T12:48:54;24.80;99.90
6758;DHT22;3416;53.074;8.822;2023-09-12T12:51:23;24.80;99.90
6758;DHT22;3416;53.074;8.822;2023-09-12T12:53:51;25.00;99.90
6758;DHT22;3416;53.074;8.822;2023-09-12T12:56:19;25.20;99.90
6758;DHT22;3416;53.074;8.822;2023-09-12T12:58:48;25.40;99.90
6758;DHT22;3416;53.074;8.822;2023-09-12T13:01:15;25.40;99.90
6758;DHT22;3416;53.074;8.822;2023-09-12T13:03:44;25.60;99.90
6758;DHT22;3416;53.074;8.822;2023-09-12T13:06:12;25.40;99.90
6758;DHT22;3416;53.074;8.822;2023-09-12T13:08:41;25.30;99.90
6758;DHT22;3416;53.074;8.822;2023-09-12T13:11:09;25.20;99.90
6758;DHT22;3416;53.074;8.822;2023-09-12T13:13:36;25.10;99.90
6758;DHT22;3416;53.074;8.822;2023-09-12T13:16:03;25.00;99.90
6758;DHT22;3416;53.074;8.822;2023-09-12T13:18:38;25.00;99.90
6758;DHT22;3416;53.074;8.822;2023-09-12T13:21:06;25.10;99.90
6758;DHT22;3416;53.074;8.822;2023-09-12T13:23:34;25.00;99.90
6758;DHT22;3416;53.074;8.822;2023-09-12T13:26:00;25.00;99.90
6758;DHT22;3416;53.074;8.822;2023-09-12T13:28:29;25.10;99.90
6758;DHT22;3416;53.074;8.822;2023-09-12T13:30:57;25.20;99.90
6758;DHT22;3416;53.074;8.822;2023-09-12T13:33:24;25.10;99.90
6758;DHT22;3416;53.074;8.822;2023-09-12T13:35:52;25.30;99.90
6758;DHT22;3416;53.074;8.822;2023-09-12T13:38:20;25.50;99.90
6758;DHT22;3416;53.074;8.822;2023-09-12T13:40:48;25.50;99.90
6758;DHT22;3416;53.074;8.822;2023-09-12T13:43:15;25.30;99.90
6758;DHT22;3416;53.074;8.822;2023-09-12T13:45:42;25.10;99.90
6758;DHT22;3416;53.074;8.822;2023-09-12T13:48:09;25.00;99.90
6758;DHT22;3416;53.074;8.822;2023-09-12T13:50:40;25.10;99.90
6758;DHT22;3416;53.074;8.822;2023-09-12T13:53:08;25.10;99.90
6758;DHT22;3416;53.074;8.822;2023-09-12T13:55:37;25.30;99.90
6758;DHT22;3416;53.074;8.822;2023-09-12T13:58:05;25.30;99.90
6758;DHT22;3416;53.074;8.822;2023-09-12T14:00:33;25.30;99.90
6758;DHT22;3416;53.074;8.822;2023-09-12T14:03:00;25.40;99.90
6758;DHT22;3416;53.074;8.822;2023-09-12T14:05:27;25.20;99.90
6758;DHT22;3416;53.074;8.822;2023-09-12T14:07:54;25.30;99.90
6758;DHT22;3416;53.074;8.822;2023-09-12T14:10:21;25.20;99.90
6758;DHT22;3416;53.074;8.822;2023-09-12T14:12:49;24.90;99.90
6758;DHT22;3416;53.074;8.822;2023-09-12T14:15:16;24.90;99.90
6758;DHT22;3416;53.074;8.822;2023-09-12T14:17:43;24.80;99.90
6758;DHT22;3416;53.074;8.822;2023-09-12T14:20:10;24.90;99.90
6758;DHT22;3416;53.074;8.822;2023-09-12T14:22:41;24.90;99.90
6758;DHT22;3416;53.074;8.822;2023-09-12T14:25:08;25.00;99.90
6758;DHT22;3416;53.074;8.822;2023-09-12T14:27:40;25.10;99.90
6758;DHT22;3416;53.074;8.822;2023-09-12T14:30:10;25.30;99.90
6758;DHT22;3416;53.074;8.822;2023-09-12T14:32:38;25.40;99.90
6758;DHT22;3416;53.074;8.822;2023-09-12T14:35:06;25.40;99.90
6758;DHT22;3416;53.074;8.822;2023-09-12T14:37:33;25.40;99.90
6758;DHT22;3416;53.074;8.822;2023-09-12T14:40:05;25.40;99.90
6758;DHT22;3416;53.074;8.822;2023-09-12T14:42:32;25.50;99.90
6758;DHT22;3416;53.074;8.822;2023-09-12T14:44:59;25.50;99.90
6758;DHT22;3416;53.074;8.822;2023-09-12T14:47:27;25.40;99.90
6758;DHT22;3416;53.074;8.822;2023-09-12T14:49:58;25.40;99.90
6758;DHT22;3416;53.074;8.822;2023-09-12T14:52:24;25.30;99.90
6758;DHT22;3416;53.074;8.822;2023-09-12T14:54:52;25.40;99.90
6758;DHT22;3416;53.074;8.822;2023-09-12T14:57:19;25.20;99.90
6758;DHT22;3416;53.074;8.822;2023-09-12T14:59:47;25.20;99.90
6758;DHT22;3416;53.074;8.822;2023-09-12T15:02:14;25.10;99.90
6758;DHT22;3416;53.074;8.822;2023-09-12T15:04:42;25.10;99.90
6758;DHT22;3416;53.074;8.822;2023-09-12T15:07:09;24.90;99.90
6758;DHT22;3416;53.074;8.822;2023-09-12T15:09:36;24.80;99.90
6758;DHT22;3416;53.074;8.822;2023-09-12T15:12:05;24.80;99.90
6758;DHT22;3416;53.074;8.822;2023-09-12T15:14:32;24.80;99.90
6758;DHT22;3416;53.074;8.822;2023-09-12T15:16:59;24.90;99.90
6758;DHT22;3416;53.074;8.822;2023-09-12T15:19:25;25.00;99.90
6758;DHT22;3416;53.074;8.822;2023-09-12T15:21:54;25.00;99.90
6758;DHT22;3416;53.074;8.822;2023-09-12T15:24:20;25.10;99.90
6758;DHT22;3416;53.074;8.822;2023-09-12T15:26:47;25.10;99.90
6758;DHT22;3416;53.074;8.822;2023-09-12T15:29:14;25.00;99.90
6758;DHT22;3416;53.074;8.822;2023-09-12T15:31:42;24.90;99.90
6758;DHT22;3416;53.074;8.822;2023-09-12T15:34:09;24.80;99.90
6758;DHT22;3416;53.074;8.822;2023-09-12T15:36:41;24.80;99.90
6758;DHT22;3416;53.074;8.822;2023-09-12T15:39:11;24.80;99.90
6758;DHT22;3416;53.074;8.822;2023-09-12T15:41:40;24.80;99.90
6758;DHT22;3416;53.074;8.822;2023-09-12T15:44:07;24.90;99.90
6758;DHT22;3416;53.074;8.822;2023-09-12T15:46:34;25.00;99.90
6758;DHT22;3416;53.074;8.822;2023-09-12T15:49:02;25.00;99.90
6758;DHT22;3416;53.074;8.822;2023-09-12T15:51:30;25.10;99.90
6758;DHT22;3416;53.074;8.822;2023-09-12T15:53:57;25.10;99.90
6758;DHT22;3416;53.074;8.822;2023-09-12T15:56:26;25.30;99.90
6758;DHT22;3416;53.074;8.822;2023-09-12T15:58:52;25.50;99.90
6758;DHT22;3416;53.074;8.822;2023-09-12T16:01:22;25.40;99.90
6758;DHT22;3416;53.074;8.822;2023-09-12T16:03:49;25.40;99.90
6758;DHT22;3416;53.074;8.822;2023-09-12T16:06:16;25.30;99.90
6758;DHT22;3416;53.074;8.822;2023-09-12T16:08:43;25.50;99.90